Time;durP1;ratioP1;P1;durP2;ratioP2;P2;SDS_P1;SDS_P2;PMS_P1;PMS_P2;Temp;Humidity;BMP_temperature;BMP_pressure;BME280_temperature;BME280_humidity;BME280_pressure;Samples;Min_cycle;Max_cycle;Signal;HPM_P1;HPM_P2
2021/01/07 00:01:58;;;;;;;8.73;5.47;;;2.60;91.90;;;;;;4314374;33;20185;-64
2021/01/07 00:04:25;;;;;;;9.83;5.50;;;2.60;91.90;;;;;;4315537;33;20174;-66
2021/01/07 00:06:51;;;;;;;6.97;5.30;;;2.50;92.00;;;;;;4315219;33;20229;-66
2021/01/07 00:09:18;;;;;;;8.60;5.37;;;2.50;92.00;;;;;;4314122;33;20550;-67
2021/01/07 00:11:45;;;;;;;10.40;5.83;;;2.50;92.10;;;;;;4312576;33;20169;-66
2021/01/07 00:14:11;;;;;;;10.90;5.97;;;2.50;92.10;;;;;;4313881;33;20169;-66
2021/01/07 00:16:37;;;;;;;8.77;5.90;;;2.50;92.10;;;;;;4316250;33;20229;-68
2021/01/07 00:19:04;;;;;;;8.90;5.60;;;2.50;92.10;;;;;;4310034;33;20139;-69
2021/01/07 00:21:31;;;;;;;9.67;6.30;;;2.50;92.20;;;;;;4315321;33;20220;-64
2021/01/07 00:23:57;;;;;;;8.47;5.57;;;2.50;92.00;;;;;;4313288;33;20171;-65
2021/01/07 00:26:23;;;;;;;8.67;5.43;;;2.50;92.00;;;;;;4313820;33;20352;-66
2021/01/07 00:28:51;;;;;;;11.83;6.30;;;2.50;92.10;;;;;;4315070;33;20231;-65
2021/01/07 00:31:17;;;;;;;10.87;6.03;;;2.60;92.10;;;;;;4314534;33;20157;-67
2021/01/07 00:33:43;;;;;;;11.67;6.50;;;2.60;92.10;;;;;;4312836;33;20217;-68
2021/01/07 00:36:10;;;;;;;8.93;5.33;;;2.60;92.10;;;;;;4313430;33;21738;-65
2021/01/07 00:38:36;;;;;;;11.00;6.43;;;2.60;92.00;;;;;;4314905;33;20316;-65
2021/01/07 00:41:03;;;;;;;9.17;5.63;;;2.70;92.10;;;;;;4311679;33;20270;-66
2021/01/07 00:43:29;;;;;;;10.97;7.10;;;2.70;92.10;;;;;;4314444;33;20173;-67
2021/01/07 00:45:56;;;;;;;11.43;6.23;;;2.60;92.10;;;;;;4313550;33;20234;-67
2021/01/07 00:48:23;;;;;;;8.13;5.83;;;2.70;92.10;;;;;;4313375;33;20158;-68
2021/01/07 00:50:49;;;;;;;10.07;6.20;;;2.70;92.10;;;;;;4314832;33;20353;-68
2021/01/07 00:53:15;;;;;;;9.87;5.53;;;2.70;92.10;;;;;;4315179;33;20173;-67
2021/01/07 00:55:42;;;;;;;9.87;5.57;;;2.70;92.10;;;;;;4312491;33;20230;-66
2021/01/07 00:58:08;;;;;;;8.50;5.37;;;2.70;92.10;;;;;;4313072;33;20147;-66
2021/01/07 01:00:35;;;;;;;8.33;5.80;;;2.80;92.10;;;;;;4314148;33;20288;-68
2021/01/07 01:03:03;;;;;;;7.93;6.00;;;2.70;92.10;;;;;;4315575;33;20265;-67
2021/01/07 01:05:29;;;;;;;11.63;5.63;;;2.70;92.10;;;;;;4313899;33;20216;-67
2021/01/07 01:07:56;;;;;;;8.90;5.87;;;2.70;92.10;;;;;;4313864;33;20594;-66
2021/01/07 01:10:22;;;;;;;8.43;5.40;;;2.70;92.10;;;;;;4313616;33;20223;-64
2021/01/07 01:12:48;;;;;;;7.07;5.43;;;2.70;92.10;;;;;;4314825;33;20233;-66
2021/01/07 01:15:16;;;;;;;6.13;5.20;;;2.70;92.20;;;;;;4314098;33;20563;-64
2021/01/07 01:17:42;;;;;;;8.63;5.67;;;2.70;92.10;;;;;;4314861;33;22412;-66
2021/01/07 01:20:12;;;;;;;11.37;5.93;;;2.70;92.00;;;;;;4313129;33;20169;-70
2021/01/07 01:22:40;;;;;;;8.63;5.47;;;2.50;92.10;;;;;;4313090;33;20563;-66
2021/01/07 01:25:08;;;;;;;12.50;6.17;;;2.50;92.20;;;;;;4314384;33;20220;-66
2021/01/07 01:27:35;;;;;;;7.23;5.40;;;2.50;92.30;;;;;;4315065;33;20213;-64
2021/01/07 01:30:03;;;;;;;6.90;4.70;;;2.50;92.30;;;;;;4314089;33;20153;-64
2021/01/07 01:32:29;;;;;;;7.93;4.90;;;2.50;92.30;;;;;;4309719;33;20233;-68
2021/01/07 01:34:56;;;;;;;8.23;5.10;;;2.60;92.30;;;;;;4313255;33;20233;-68
2021/01/07 01:37:23;;;;;;;7.13;4.40;;;2.60;92.20;;;;;;4314890;33;20141;-65
2021/01/07 01:39:49;;;;;;;7.77;4.53;;;2.50;92.20;;;;;;4313544;33;20177;-66
2021/01/07 01:42:15;;;;;;;7.80;4.50;;;2.40;92.30;;;;;;4315026;33;20226;-65
2021/01/07 01:44:42;;;;;;;6.47;4.20;;;2.40;92.40;;;;;;4314019;33;20185;-66
2021/01/07 01:47:08;;;;;;;4.90;4.13;;;2.30;92.50;;;;;;4313085;33;20240;-65
2021/01/07 01:49:34;;;;;;;6.23;4.57;;;2.40;92.60;;;;;;4313602;33;20235;-66
2021/01/07 01:52:01;;;;;;;5.63;3.93;;;2.40;92.50;;;;;;4313518;33;20985;-64
2021/01/07 01:54:28;;;;;;;6.80;4.43;;;2.30;92.60;;;;;;4313542;33;20199;-67
2021/01/07 01:56:57;;;;;;;9.53;4.67;;;2.40;92.60;;;;;;4311087;33;20203;-66
2021/01/07 01:59:29;;;;;;;7.43;4.40;;;2.40;92.70;;;;;;4313786;33;20229;-65
2021/01/07 02:01:55;;;;;;;6.60;4.53;;;2.40;92.60;;;;;;4313632;33;20643;-68
2021/01/07 02:04:21;;;;;;;7.67;4.47;;;2.40;92.60;;;;;;4313517;33;20296;-65
2021/01/07 02:06:48;;;;;;;8.43;4.97;;;2.40;92.50;;;;;;4310048;33;20181;-64
2021/01/07 02:09:15;;;;;;;8.93;4.77;;;2.40;92.50;;;;;;4313001;33;20168;-67
2021/01/07 02:11:43;;;;;;;7.73;4.10;;;2.40;92.50;;;;;;4315321;33;20158;-64
2021/01/07 02:14:09;;;;;;;8.77;5.27;;;2.40;92.50;;;;;;4313940;33;20157;-64
2021/01/07 02:16:35;;;;;;;7.37;5.00;;;2.50;92.50;;;;;;4309311;33;20298;-65
2021/01/07 02:19:02;;;;;;;7.17;5.27;;;2.40;92.50;;;;;;4314374;33;20245;-66
2021/01/07 02:21:36;;;;;;;6.63;4.57;;;2.50;92.50;;;;;;4313771;33;20610;-66
2021/01/07 02:24:02;;;;;;;7.10;4.20;;;2.50;92.50;;;;;;4313871;33;20187;-64
2021/01/07 02:26:29;;;;;;;7.20;4.60;;;2.50;92.50;;;;;;4311903;33;20237;-65
2021/01/07 02:28:55;;;;;;;7.47;3.93;;;2.50;92.40;;;;;;4311728;33;20229;-67
2021/01/07 02:31:21;;;;;;;6.97;4.53;;;2.50;92.40;;;;;;4312964;33;20661;-67
2021/01/07 02:33:48;;;;;;;6.33;4.60;;;2.50;92.30;;;;;;4312784;33;20157;-65
2021/01/07 02:36:14;;;;;;;6.80;4.80;;;2.50;92.40;;;;;;4313344;33;20185;-65
2021/01/07 02:38:41;;;;;;;7.00;5.03;;;2.40;92.50;;;;;;4313276;33;20264;-65
2021/01/07 02:41:09;;;;;;;8.33;5.00;;;2.40;92.40;;;;;;4313504;33;20233;-66
2021/01/07 02:43:37;;;;;;;7.00;4.73;;;2.50;92.50;;;;;;4313574;33;20221;-64
2021/01/07 02:46:03;;;;;;;6.13;3.87;;;2.50;92.40;;;;;;4313298;33;20225;-67
2021/01/07 02:48:29;;;;;;;7.30;5.13;;;2.50;92.40;;;;;;4312149;33;20192;-64
2021/01/07 02:50:56;;;;;;;5.50;4.67;;;2.40;92.40;;;;;;4313259;33;20214;-64
2021/01/07 02:53:22;;;;;;;7.87;4.63;;;2.40;92.50;;;;;;4312950;33;20173;-65
2021/01/07 02:55:49;;;;;;;6.50;4.80;;;2.50;92.50;;;;;;4314667;33;20161;-64
2021/01/07 02:58:15;;;;;;;6.10;4.50;;;2.50;92.50;;;;;;4310148;33;20178;-67
2021/01/07 03:00:42;;;;;;;8.17;5.07;;;2.50;92.50;;;;;;4313666;33;20558;-64
2021/01/07 03:03:08;;;;;;;8.83;5.00;;;2.50;92.50;;;;;;4313028;33;20225;-63
2021/01/07 03:05:34;;;;;;;9.77;5.03;;;2.50;92.50;;;;;;4313348;33;20173;-63
2021/01/07 03:08:00;;;;;;;7.97;5.30;;;2.50;92.60;;;;;;4310940;33;20256;-66
2021/01/07 03:10:27;;;;;;;5.83;4.57;;;2.40;92.60;;;;;;4313230;33;20155;-66
2021/01/07 03:12:54;;;;;;;8.90;5.40;;;2.60;92.70;;;;;;4313922;33;20229;-64
2021/01/07 03:15:20;;;;;;;8.83;5.10;;;2.50;92.70;;;;;;4317156;33;20190;-64
2021/01/07 03:17:47;;;;;;;11.43;5.30;;;2.50;92.70;;;;;;4315016;33;20213;-64
2021/01/07 03:20:14;;;;;;;7.80;4.87;;;2.50;92.60;;;;;;4315913;33;20209;-65
2021/01/07 03:22:41;;;;;;;6.77;4.67;;;2.50;92.70;;;;;;4316881;33;20206;-63
2021/01/07 03:25:08;;;;;;;6.03;4.63;;;2.50;92.80;;;;;;4316957;33;20236;-65
2021/01/07 03:27:34;;;;;;;7.90;5.37;;;2.50;92.70;;;;;;4317376;33;20217;-64
2021/01/07 03:30:02;;;;;;;9.30;5.50;;;2.50;92.70;;;;;;4316385;33;20189;-62
2021/01/07 03:32:29;;;;;;;6.20;4.83;;;2.40;92.70;;;;;;4315933;33;20179;-65
2021/01/07 03:34:55;;;;;;;10.43;5.13;;;2.40;92.80;;;;;;4316472;33;20228;-68
2021/01/07 03:37:21;;;;;;;7.93;5.40;;;2.30;92.90;;;;;;4316034;33;20221;-66
2021/01/07 03:39:48;;;;;;;6.57;4.77;;;2.30;92.90;;;;;;4316479;33;20217;-61
2021/01/07 03:42:14;;;;;;;6.57;5.10;;;2.30;93.00;;;;;;4316099;33;20184;-65
2021/01/07 03:44:40;;;;;;;10.77;5.37;;;2.30;93.00;;;;;;4315686;33;20221;-64
2021/01/07 03:47:07;;;;;;;6.67;4.70;;;2.30;93.00;;;;;;4313790;33;20217;-63
2021/01/07 03:49:33;;;;;;;5.60;4.77;;;2.30;93.20;;;;;;4314426;33;20306;-62
2021/01/07 03:52:00;;;;;;;6.60;4.33;;;2.40;92.90;;;;;;4314674;33;20260;-64
2021/01/07 03:54:26;;;;;;;7.17;4.67;;;2.30;92.90;;;;;;4315775;33;20154;-66
2021/01/07 03:56:53;;;;;;;7.83;3.87;;;2.30;92.90;;;;;;4315015;33;20280;-62
2021/01/07 03:59:19;;;;;;;6.07;4.20;;;2.30;93.00;;;;;;4316046;33;20253;-65
2021/01/07 04:01:45;;;;;;;5.30;3.97;;;2.50;93.10;;;;;;4316063;33;20288;-63
2021/01/07 04:04:12;;;;;;;6.07;4.00;;;2.40;93.20;;;;;;4316181;33;20633;-65
2021/01/07 04:06:38;;;;;;;5.47;4.10;;;2.40;93.50;;;;;;4315055;33;20237;-66
2021/01/07 04:09:05;;;;;;;6.00;4.23;;;2.40;93.10;;;;;;4316864;33;20164;-63
2021/01/07 04:11:32;;;;;;;9.10;4.70;;;2.40;93.10;;;;;;4316925;33;20182;-64
2021/01/07 04:13:58;;;;;;;7.50;5.03;;;2.40;93.00;;;;;;4316443;33;20267;-65
2021/01/07 04:16:24;;;;;;;6.63;3.70;;;2.40;93.00;;;;;;4314868;33;20220;-63
2021/01/07 04:18:51;;;;;;;6.90;4.50;;;2.40;93.00;;;;;;4314896;33;20199;-66
2021/01/07 04:21:19;;;;;;;9.20;4.17;;;2.40;93.00;;;;;;4315095;33;20282;-64
2021/01/07 04:23:46;;;;;;;10.10;3.97;;;2.40;93.00;;;;;;4313933;33;20175;-63
2021/01/07 04:26:12;;;;;;;8.57;4.93;;;2.40;92.90;;;;;;4316428;33;20507;-62
2021/01/07 04:28:38;;;;;;;8.13;4.40;;;2.40;92.90;;;;;;4316011;33;20241;-64
2021/01/07 04:31:04;;;;;;;7.90;4.50;;;2.30;93.00;;;;;;4315149;33;20331;-65
2021/01/07 04:33:31;;;;;;;8.20;4.43;;;2.30;93.10;;;;;;4315352;33;20268;-63
2021/01/07 04:35:57;;;;;;;6.57;4.67;;;2.40;93.10;;;;;;4314979;33;20183;-67
2021/01/07 04:38:24;;;;;;;8.97;4.53;;;2.40;93.00;;;;;;4315861;33;20158;-62
2021/01/07 04:40:50;;;;;;;7.87;5.13;;;2.40;93.00;;;;;;4315041;33;20259;-65
2021/01/07 04:43:17;;;;;;;7.30;5.13;;;2.40;93.00;;;;;;4312918;33;20241;-64
2021/01/07 04:45:43;;;;;;;9.03;4.80;;;2.30;93.00;;;;;;4314936;33;20217;-63
2021/01/07 04:48:10;;;;;;;5.77;4.20;;;2.30;93.00;;;;;;4314948;33;20221;-63
2021/01/07 04:50:36;;;;;;;7.10;4.27;;;2.40;93.10;;;;;;4314125;33;20642;-65
2021/01/07 04:53:02;;;;;;;6.70;4.17;;;2.30;93.10;;;;;;4315962;33;20642;-63
2021/01/07 04:55:30;;;;;;;6.10;4.07;;;2.40;93.20;;;;;;4313377;33;20189;-64
2021/01/07 04:57:56;;;;;;;7.03;4.20;;;2.40;93.10;;;;;;4314750;33;20184;-66
2021/01/07 05:00:23;;;;;;;7.50;4.23;;;2.50;93.10;;;;;;4316039;33;20153;-64
2021/01/07 05:02:50;;;;;;;7.40;4.53;;;2.40;93.00;;;;;;4314956;33;20209;-64
2021/01/07 05:05:16;;;;;;;4.93;3.70;;;2.40;93.10;;;;;;4315836;33;20185;-66
2021/01/07 05:07:42;;;;;;;7.20;4.30;;;2.50;93.10;;;;;;4314949;33;20312;-64
2021/01/07 05:10:12;;;;;;;10.63;4.50;;;2.50;93.10;;;;;;4314715;33;20153;-62
2021/01/07 05:12:39;;;;;;;6.13;4.13;;;2.40;93.10;;;;;;4315194;33;20161;-63
2021/01/07 05:15:07;;;;;;;7.97;4.20;;;2.40;93.10;;;;;;4314757;33;20273;-65
2021/01/07 05:17:35;;;;;;;5.27;3.97;;;2.40;93.20;;;;;;4314543;33;20160;-65
2021/01/07 05:20:01;;;;;;;6.70;3.90;;;2.40;93.20;;;;;;4312801;33;20239;-63
2021/01/07 05:22:35;;;;;;;6.83;3.93;;;2.40;93.30;;;;;;4314062;33;20222;-65
2021/01/07 05:25:01;;;;;;;8.93;4.37;;;2.40;93.30;;;;;;4314724;33;20360;-63
2021/01/07 05:27:28;;;;;;;7.80;4.53;;;2.50;93.20;;;;;;4314329;33;20213;-62
2021/01/07 05:29:59;;;;;;;8.93;5.03;;;2.50;93.20;;;;;;4316103;33;20221;-65
2021/01/07 05:32:35;;;;;;;7.43;4.07;;;2.50;93.10;;;;;;4314259;33;20575;-65
2021/01/07 05:35:02;;;;;;;9.73;4.83;;;2.50;93.10;;;;;;4312139;33;20173;-63
2021/01/07 05:37:33;;;;;;;8.37;4.47;;;2.50;93.20;;;;;;4314112;33;20173;-64
2021/01/07 05:40:00;;;;;;;7.17;4.30;;;2.50;93.30;;;;;;4314170;33;20212;-62
2021/01/07 05:42:27;;;;;;;7.13;4.40;;;2.50;93.30;;;;;;4314962;33;20217;-63
2021/01/07 05:44:55;;;;;;;9.63;5.00;;;2.50;93.30;;;;;;4315884;33;20606;-61
2021/01/07 05:47:27;;;;;;;7.20;4.57;;;2.50;93.30;;;;;;4313861;33;20172;-64
2021/01/07 05:49:55;;;;;;;10.10;4.80;;;2.50;93.30;;;;;;4311510;33;20225;-66
2021/01/07 05:52:22;;;;;;;10.70;5.00;;;2.60;93.40;;;;;;4313114;33;20165;-62
2021/01/07 05:54:49;;;;;;;8.13;5.17;;;2.50;93.40;;;;;;4311473;33;20150;-65
2021/01/07 05:57:18;;;;;;;8.37;5.00;;;2.60;93.40;;;;;;4312246;33;20225;-65
2021/01/07 05:59:47;;;;;;;8.93;4.70;;;2.60;93.40;;;;;;4314003;33;20150;-64
2021/01/07 06:02:16;;;;;;;6.97;4.67;;;2.60;93.40;;;;;;4309063;33;20517;-62
2021/01/07 06:04:47;;;;;;;7.97;4.53;;;2.70;93.40;;;;;;4314051;33;20150;-62
2021/01/07 06:07:16;;;;;;;7.80;4.37;;;2.70;93.30;;;;;;4313707;33;20219;-64
2021/01/07 06:09:45;;;;;;;7.87;4.53;;;2.70;93.30;;;;;;4313765;33;20208;-66
2021/01/07 06:12:13;;;;;;;6.53;4.40;;;2.70;93.30;;;;;;4311773;33;20367;-65
2021/01/07 06:14:42;;;;;;;9.63;4.63;;;2.70;93.30;;;;;;4311845;33;20643;-65
2021/01/07 06:17:09;;;;;;;9.50;5.40;;;2.70;93.30;;;;;;4314609;33;20479;-63
2021/01/07 06:19:40;;;;;;;6.70;4.87;;;2.80;93.30;;;;;;4315114;33;20196;-64
2021/01/07 06:22:11;;;;;;;10.20;5.30;;;2.80;93.30;;;;;;4311860;33;20305;-65
2021/01/07 06:24:38;;;;;;;6.47;4.57;;;2.90;93.30;;;;;;4310543;33;20226;-67
2021/01/07 06:27:23;;;;;;;6.83;4.80;;;2.90;93.20;;;;;;4313659;33;20226;-62
2021/01/07 06:29:54;;;;;;;7.80;5.20;;;3.00;93.20;;;;;;4313241;33;20165;-68
2021/01/07 06:32:21;;;;;;;7.30;4.37;;;3.00;93.10;;;;;;4314214;33;20665;-65
2021/01/07 06:34:48;;;;;;;9.03;5.13;;;3.00;93.10;;;;;;4313601;33;20543;-63
2021/01/07 06:37:30;;;;;;;9.37;5.30;;;3.00;93.10;;;;;;4310721;33;20188;-64
2021/01/07 06:39:57;;;;;;;8.33;5.00;;;3.00;93.20;;;;;;4313539;33;20229;-64
2021/01/07 06:42:24;;;;;;;7.47;4.23;;;2.90;93.10;;;;;;4312419;33;20519;-65
2021/01/07 06:44:52;;;;;;;9.47;5.23;;;3.00;93.10;;;;;;4311775;33;20225;-65
2021/01/07 06:47:20;;;;;;;9.43;5.37;;;3.00;93.40;;;;;;4311805;33;20225;-62
2021/01/07 06:49:47;;;;;;;8.10;4.40;;;3.00;93.10;;;;;;4313879;33;20168;-62
2021/01/07 06:52:14;;;;;;;7.90;4.23;;;3.10;93.00;;;;;;4315642;33;20233;-65
2021/01/07 06:54:43;;;;;;;10.13;5.33;;;3.10;93.00;;;;;;4315887;33;20215;-62
2021/01/07 06:57:12;;;;;;;6.97;4.30;;;3.00;93.00;;;;;;4314969;33;20229;-64
2021/01/07 06:59:56;;;;;;;6.67;4.10;;;3.00;93.00;;;;;;4315912;33;20188;-64
2021/01/07 07:02:22;;;;;;;7.87;4.50;;;3.00;93.00;;;;;;4314267;33;20169;-62
2021/01/07 07:04:58;;;;;;;6.70;4.47;;;3.00;93.00;;;;;;4314798;33;20160;-64
2021/01/07 07:08:01;;;;;;;7.87;4.50;;;3.00;93.00;;;;;;4315130;33;20621;-63
2021/01/07 07:10:58;;;;;;;6.20;3.93;;;3.00;93.10;;;;;;4312999;33;20508;-64
2021/01/07 07:13:26;;;;;;;4.87;3.73;;;3.00;93.10;;;;;;4317589;33;20229;-63
2021/01/07 07:15:53;;;;;;;6.77;3.90;;;3.00;93.20;;;;;;4314853;33;20207;-62
2021/01/07 07:18:26;;;;;;;6.77;4.83;;;3.00;93.20;;;;;;4313625;33;20156;-65
2021/01/07 07:20:57;;;;;;;7.63;4.90;;;3.00;93.20;;;;;;4312911;33;20154;-63
2021/01/07 07:23:28;;;;;;;7.03;4.60;;;3.00;93.20;;;;;;4312726;33;20245;-63
2021/01/07 07:25:56;;;;;;;6.37;4.03;;;2.90;93.20;;;;;;4309402;33;20169;-64
2021/01/07 07:28:35;;;;;;;5.87;3.83;;;2.90;93.20;;;;;;4306814;33;20192;-63
2021/01/07 07:31:03;;;;;;;8.57;4.17;;;2.90;93.20;;;;;;4312586;33;20232;-68
2021/01/07 07:33:44;;;;;;;5.77;4.27;;;2.90;93.20;;;;;;4310570;33;20237;-64
2021/01/07 07:36:13;;;;;;;6.77;5.03;;;2.80;93.50;;;;;;4313019;33;20647;-62
2021/01/07 07:38:45;;;;;;;8.23;5.00;;;2.70;93.30;;;;;;4313239;33;20191;-64
2021/01/07 07:41:12;;;;;;;10.17;4.90;;;2.60;93.40;;;;;;4309646;33;20153;-64
2021/01/07 07:43:40;;;;;;;8.00;5.13;;;2.60;93.50;;;;;;4314431;33;20184;-63
2021/01/07 07:46:24;;;;;;;8.77;5.20;;;2.60;93.50;;;;;;4316112;33;20168;-62
2021/01/07 07:49:04;;;;;;;7.77;5.03;;;2.50;93.80;;;;;;4311847;33;20508;-63
2021/01/07 07:51:36;;;;;;;9.50;5.00;;;2.50;93.80;;;;;;4312777;33;20219;-62
2021/01/07 07:54:07;;;;;;;8.30;4.77;;;2.60;93.70;;;;;;4315171;33;20154;-68
2021/01/07 07:56:42;;;;;;;8.37;4.80;;;2.50;93.70;;;;;;4313302;33;20525;-62
2021/01/07 07:59:31;;;;;;;8.90;5.10;;;2.60;93.80;;;;;;4314199;33;20661;-63
2021/01/07 08:01:58;;;;;;;8.57;5.50;;;2.60;94.10;;;;;;4314844;33;20168;-64
2021/01/07 08:04:28;;;;;;;7.60;5.13;;;2.60;94.00;;;;;;4318372;33;20664;-62
2021/01/07 08:07:08;;;;;;;8.23;5.10;;;2.60;94.00;;;;;;4315412;33;20169;-62
2021/01/07 08:09:37;;;;;;;7.40;5.10;;;2.60;94.00;;;;;;4319297;33;20158;-62
2021/01/07 08:12:07;;;;;;;10.07;6.40;;;2.70;94.00;;;;;;4317843;33;20162;-61
2021/01/07 08:14:40;;;;;;;11.17;6.30;;;2.70;94.10;;;;;;4314978;33;20550;-65
2021/01/07 08:17:08;;;;;;;10.27;6.43;;;2.70;94.10;;;;;;4314577;33;20156;-64
2021/01/07 08:19:40;;;;;;;9.50;5.43;;;2.70;94.20;;;;;;4318120;33;20185;-64
2021/01/07 08:22:10;;;;;;;12.77;6.97;;;2.70;94.20;;;;;;4310026;33;20231;-63
2021/01/07 08:24:42;;;;;;;9.13;6.40;;;2.80;94.10;;;;;;4312358;33;20251;-65
2021/01/07 08:27:23;;;;;;;8.53;5.77;;;2.80;94.10;;;;;;4313503;33;20650;-66
2021/01/07 08:30:07;;;;;;;11.20;6.80;;;2.70;94.10;;;;;;4316269;33;20180;-62
2021/01/07 08:32:40;;;;;;;10.07;6.13;;;2.80;94.20;;;;;;4317280;33;20205;-62
2021/01/07 08:35:12;;;;;;;9.13;6.77;;;2.80;93.90;;;;;;4314702;33;20653;-62
2021/01/07 08:37:44;;;;;;;10.47;6.30;;;2.80;93.80;;;;;;4315343;33;20167;-62
2021/01/07 08:40:15;;;;;;;11.93;6.80;;;2.80;93.90;;;;;;4318402;33;20191;-65
2021/01/07 08:42:44;;;;;;;8.47;6.50;;;2.80;93.90;;;;;;4315464;33;20217;-67
2021/01/07 08:45:15;;;;;;;8.13;6.20;;;2.80;94.00;;;;;;4315864;33;20555;-63
2021/01/07 08:47:41;;;;;;;9.47;6.80;;;2.80;94.20;;;;;;4319463;33;20511;-69
2021/01/07 08:50:09;;;;;;;15.53;6.90;;;2.90;94.20;;;;;;4314313;33;20145;-63
2021/01/07 08:52:49;;;;;;;9.60;6.40;;;3.00;94.20;;;;;;4315553;33;20287;-62
2021/01/07 08:55:16;;;;;;;9.23;6.30;;;3.10;94.10;;;;;;4318557;33;20146;-62
2021/01/07 08:57:42;;;;;;;10.70;6.80;;;3.10;94.00;;;;;;4317963;33;20157;-63
2021/01/07 09:00:16;;;;;;;9.97;7.07;;;3.30;94.00;;;;;;4317576;33;20239;-65
2021/01/07 09:03:02;;;;;;;8.73;6.00;;;3.50;93.80;;;;;;4316666;33;20185;-62
2021/01/07 09:05:29;;;;;;;8.37;5.83;;;3.60;93.50;;;;;;4316685;33;20590;-63
2021/01/07 09:08:21;;;;;;;9.27;5.50;;;3.60;93.30;;;;;;4314896;33;20566;-64
2021/01/07 09:10:59;;;;;;;8.87;6.00;;;3.70;93.00;;;;;;4314935;33;20188;-63
2021/01/07 09:13:28;;;;;;;8.23;5.80;;;3.80;92.80;;;;;;4314549;33;20153;-63
2021/01/07 09:16:15;;;;;;;8.00;5.43;;;3.90;92.60;;;;;;4315632;33;20157;-65
2021/01/07 09:18:51;;;;;;;7.63;4.20;;;3.90;92.60;;;;;;4313658;33;20221;-63
2021/01/07 09:21:18;;;;;;;8.77;4.93;;;3.90;92.50;;;;;;4314249;33;20217;-70
2021/01/07 09:23:47;;;;;;;8.93;4.80;;;3.90;92.40;;;;;;4312922;33;20153;-63
2021/01/07 09:26:27;;;;;;;7.70;4.70;;;3.80;92.30;;;;;;4317012;33;20259;-60
2021/01/07 09:28:54;;;;;;;7.47;4.93;;;3.90;92.50;;;;;;4311641;33;20200;-62
2021/01/07 09:31:21;;;;;;;11.53;5.90;;;3.90;92.50;;;;;;4309910;33;20260;-64
2021/01/07 09:33:54;;;;;;;10.50;5.63;;;3.90;92.50;;;;;;4313861;33;20153;-62
2021/01/07 09:36:25;;;;;;;7.47;4.97;;;3.90;92.40;;;;;;4315296;33;20225;-67
2021/01/07 09:38:51;;;;;;;7.77;4.87;;;3.90;92.40;;;;;;4311550;33;20204;-63
2021/01/07 09:41:20;;;;;;;9.07;4.50;;;3.90;92.40;;;;;;4309879;33;20165;-63
2021/01/07 09:43:52;;;;;;;4.17;3.70;;;3.90;92.40;;;;;;4311561;33;20231;-63
2021/01/07 09:46:23;;;;;;;4.27;3.27;;;3.80;92.30;;;;;;4313773;33;20162;-67
2021/01/07 09:48:55;;;;;;;4.00;3.00;;;3.70;92.30;;;;;;4315033;33;20225;-65
2021/01/07 09:51:25;;;;;;;4.40;2.70;;;3.60;92.60;;;;;;4310996;33;20211;-63
2021/01/07 09:53:54;;;;;;;3.03;2.50;;;3.60;92.50;;;;;;4310759;33;20205;-63
2021/01/07 09:56:23;;;;;;;3.33;2.70;;;3.60;92.60;;;;;;4312029;33;20372;-64
2021/01/07 09:58:55;;;;;;;4.13;2.77;;;3.70;92.80;;;;;;4310679;33;20295;-64
2021/01/07 10:01:22;;;;;;;6.20;3.00;;;3.90;92.60;;;;;;4312144;33;20169;-66
2021/01/07 10:04:02;;;;;;;4.40;2.97;;;4.10;92.40;;;;;;4308499;33;20157;-62
2021/01/07 10:06:36;;;;;;;3.37;2.37;;;4.10;92.30;;;;;;4309112;33;20232;-65
2021/01/07 10:09:33;;;;;;;3.50;2.47;;;4.20;92.10;;;;;;4315388;33;20618;-67
2021/01/07 10:12:15;;;;;;;5.07;2.60;;;4.10;91.80;;;;;;4312674;33;21939;-68
2021/01/07 10:14:44;;;;;;;5.00;2.43;;;4.00;91.60;;;;;;4313964;33;20482;-65
2021/01/07 10:17:21;;;;;;;2.90;2.17;;;4.00;91.90;;;;;;4311284;33;20146;-66
2021/01/07 10:19:49;;;;;;;3.77;2.00;;;3.90;92.00;;;;;;4317040;33;20153;-62
2021/01/07 10:22:30;;;;;;;3.03;2.17;;;3.70;92.20;;;;;;4316771;33;20169;-63
2021/01/07 10:25:05;;;;;;;2.80;2.20;;;3.80;92.50;;;;;;4314353;33;20208;-65
2021/01/07 10:27:36;;;;;;;4.10;2.30;;;3.80;92.50;;;;;;4314639;33;20208;-62
2021/01/07 10:30:05;;;;;;;2.33;1.40;;;3.90;92.40;;;;;;4091111;33;7511078;-63
2021/01/07 10:32:36;;;;;;;2.07;1.63;;;3.70;92.00;;;;;;4312174;33;20165;-62
2021/01/07 10:35:08;;;;;;;2.87;1.93;;;3.60;92.40;;;;;;4315453;33;20236;-62
2021/01/07 10:37:38;;;;;;;2.97;1.47;;;3.60;92.50;;;;;;4311206;33;20306;-66
2021/01/07 10:40:14;;;;;;;7.90;2.53;;;3.60;92.80;;;;;;4317434;33;20166;-64
2021/01/07 10:42:47;;;;;;;4.13;1.97;;;3.70;92.80;;;;;;4315387;33;20293;-64
2021/01/07 10:45:14;;;;;;;2.53;1.93;;;3.70;92.40;;;;;;4315132;33;20164;-61
2021/01/07 10:47:52;;;;;;;6.23;2.03;;;3.80;92.60;;;;;;4314606;33;20158;-63
2021/01/07 10:50:29;;;;;;;2.80;1.73;;;3.90;92.60;;;;;;4311785;33;20220;-64
2021/01/07 10:53:15;;;;;;;5.43;2.00;;;3.90;92.10;;;;;;4310506;33;20205;-62
2021/01/07 10:55:53;;;;;;;3.03;1.43;;;3.80;92.30;;;;;;4309206;33;20180;-64
2021/01/07 10:58:49;;;;;;;3.23;1.70;;;3.80;92.60;;;;;;4311088;33;20263;-64
2021/01/07 11:01:34;;;;;;;5.10;2.60;;;4.10;92.70;;;;;;4311410;33;20187;-63
2021/01/07 11:04:30;;;;;;;3.87;2.20;;;4.30;92.50;;;;;;4309168;33;20209;-63
2021/01/07 11:07:12;;;;;;;4.20;1.90;;;4.40;91.80;;;;;;4311554;33;20610;-63
2021/01/07 11:09:44;;;;;;;2.17;1.80;;;4.60;91.90;;;;;;4308853;33;20268;-62
2021/01/07 11:12:20;;;;;;;2.20;1.73;;;4.80;91.70;;;;;;4312982;33;20178;-65
2021/01/07 11:14:55;;;;;;;4.20;1.40;;;4.70;91.00;;;;;;4308403;33;20163;-66
2021/01/07 11:17:28;;;;;;;5.67;1.67;;;4.80;91.20;;;;;;4313937;33;20195;-63
2021/01/07 11:20:06;;;;;;;4.37;1.93;;;4.90;91.20;;;;;;4307171;33;20291;-62
2021/01/07 11:22:47;;;;;;;6.07;1.73;;;4.90;90.60;;;;;;4312154;33;20160;-63
2021/01/07 11:25:24;;;;;;;4.13;2.10;;;4.90;90.70;;;;;;4308986;33;20180;-63
2021/01/07 11:28:11;;;;;;;;;;;;;;;;;;;;;
2021/01/07 11:31:08;;;;;;;9.37;2.97;;;5.00;91.00;;;;;;4305726;33;20178;-63
2021/01/07 11:33:48;;;;;;;7.17;2.30;;;5.10;90.90;;;;;;4311543;33;20151;-65
2021/01/07 11:36:40;;;;;;;5.90;3.30;;;5.00;90.80;;;;;;4313892;33;20178;-62
2021/01/07 11:39:09;;;;;;;5.17;2.83;;;4.90;90.90;;;;;;4317406;33;20154;-63
2021/01/07 11:42:03;;;;;;;9.10;3.80;;;5.00;91.10;;;;;;4315074;33;20537;-63
2021/01/07 11:44:49;;;;;;;6.60;3.87;;;5.00;91.00;;;;;;4309024;33;20165;-62
2021/01/07 11:47:37;;;;;;;7.53;3.57;;;5.20;91.10;;;;;;4311670;33;20204;-62
2021/01/07 11:50:07;;;;;;;5.67;3.87;;;5.30;91.10;;;;;;4311555;33;20162;-63
2021/01/07 11:52:36;;;;;;;4.80;3.50;;;5.20;90.80;;;;;;4311781;33;20672;-63
2021/01/07 11:55:10;;;;;;;6.83;4.03;;;5.30;90.70;;;;;;4313030;33;20479;-64
2021/01/07 11:57:45;;;;;;;8.27;3.27;;;5.40;91.20;;;;;;4314952;33;20239;-66
2021/01/07 12:00:31;;;;;;;6.53;3.60;;;5.60;90.60;;;;;;4315188;33;20498;-68
2021/01/07 12:03:01;;;;;;;6.90;3.50;;;5.50;90.50;;;;;;4314333;33;20273;-63
2021/01/07 12:05:30;;;;;;;6.33;3.33;;;5.50;90.60;;;;;;4314774;33;20166;-63
2021/01/07 12:08:12;;;;;;;9.50;3.80;;;5.40;90.50;;;;;;4314160;33;20154;-65
2021/01/07 12:10:53;;;;;;;7.63;3.20;;;5.30;90.50;;;;;;4311724;33;20156;-65
2021/01/07 12:13:26;;;;;;;7.73;4.57;;;5.30;90.70;;;;;;4315417;33;20199;-63
2021/01/07 12:15:59;;;;;;;5.13;3.43;;;5.30;90.70;;;;;;4315859;33;20158;-63
2021/01/07 12:18:33;;;;;;;7.07;3.50;;;5.20;90.40;;;;;;4315437;33;20188;-62
2021/01/07 12:21:01;;;;;;;5.70;3.30;;;5.20;90.50;;;;;;4313243;33;20153;-65
2021/01/07 12:23:37;;;;;;;16.40;4.27;;;5.00;90.40;;;;;;4314545;33;20633;-65
2021/01/07 12:26:15;;;;;;;4.63;2.40;;;4.90;90.70;;;;;;4314206;33;20259;-63
2021/01/07 12:28:44;;;;;;;8.97;3.00;;;4.90;90.90;;;;;;4313372;33;20193;-63
2021/01/07 12:31:20;;;;;;;6.40;3.27;;;4.90;91.00;;;;;;4315642;33;20161;-62
2021/01/07 12:34:03;;;;;;;8.30;3.57;;;4.80;91.10;;;;;;4314356;33;20578;-63
2021/01/07 12:36:46;;;;;;;7.60;2.80;;;4.80;91.30;;;;;;4314126;33;20180;-62
2021/01/07 12:39:31;;;;;;;9.97;3.10;;;4.70;91.30;;;;;;4313935;33;20180;-65
2021/01/07 12:41:58;;;;;;;7.77;2.73;;;4.90;91.40;;;;;;4315546;33;20211;-65
2021/01/07 12:44:32;;;;;;;8.33;3.53;;;4.90;91.40;;;;;;4316350;33;20188;-63
2021/01/07 12:46:58;;;;;;;5.50;3.03;;;5.00;91.20;;;;;;4314109;33;20147;-63
2021/01/07 12:49:29;;;;;;;12.40;3.50;;;5.00;91.10;;;;;;4314364;33;20247;-62
2021/01/07 12:51:55;;;;;;;7.70;2.70;;;5.00;91.10;;;;;;4314804;33;20211;-63
2021/01/07 12:54:22;;;;;;;15.03;3.60;;;5.00;91.00;;;;;;4316325;33;20208;-62
2021/01/07 12:57:02;;;;;;;19.87;10.63;;;5.00;91.00;;;;;;4315905;33;20217;-67
2021/01/07 12:59:48;;;;;;;13.40;4.03;;;4.90;91.10;;;;;;4316154;33;20183;-65
2021/01/07 13:02:33;;;;;;;12.27;2.97;;;4.80;91.00;;;;;;4314802;33;20232;-66
2021/01/07 13:05:10;;;;;;;17.13;2.83;;;4.60;90.90;;;;;;4314523;33;20178;-63
2021/01/07 13:07:38;;;;;;;6.43;2.53;;;4.40;91.20;;;;;;4316522;33;20245;-64
2021/01/07 13:10:06;;;;;;;7.17;3.10;;;4.40;91.40;;;;;;4315871;33;20477;-62
2021/01/07 13:12:34;;;;;;;12.10;2.83;;;4.40;91.80;;;;;;4316021;33;20184;-62
2021/01/07 13:15:09;;;;;;;9.33;3.17;;;4.30;92.10;;;;;;4313929;33;20224;-64
2021/01/07 13:17:43;;;;;;;12.37;3.63;;;4.30;92.30;;;;;;4315028;33;20158;-65